sensor_id;sensor_type;location;lat;lon;timestamp;P1;durP1;ratioP1;P2;durP2;ratioP2
54259;SDS011;40172;53.022;7.012;2023-05-07T00:01:26;39.72;;;27.08;;
54259;SDS011;40172;53.022;7.012;2023-05-07T00:03:52;36.15;;;25.75;;
54259;SDS011;40172;53.022;7.012;2023-05-07T00:06:17;38.40;;;27.10;;
54259;SDS011;40172;53.022;7.012;2023-05-07T00:08:43;36.65;;;26.13;;
54259;SDS011;40172;53.022;7.012;2023-05-07T00:11:08;36.35;;;26.55;;
54259;SDS011;40172;53.022;7.012;2023-05-07T00:13:34;36.38;;;26.35;;
54259;SDS011;40172;53.022;7.012;2023-05-07T00:16:03;33.92;;;25.55;;
54259;SDS011;40172;53.022;7.012;2023-05-07T00:18:29;33.60;;;26.10;;
54259;SDS011;40172;53.022;7.012;2023-05-07T00:20:55;31.95;;;24.15;;
54259;SDS011;40172;53.022;7.012;2023-05-07T00:23:21;32.83;;;25.58;;
54259;SDS011;40172;53.022;7.012;2023-05-07T00:25:47;35.95;;;26.70;;
54259;SDS011;40172;53.022;7.012;2023-05-07T00:28:13;33.30;;;25.02;;
54259;SDS011;40172;53.022;7.012;2023-05-07T00:30:38;34.92;;;25.55;;
54259;SDS011;40172;53.022;7.012;2023-05-07T00:33:04;33.50;;;26.13;;
54259;SDS011;40172;53.022;7.012;2023-05-07T00:35:29;31.80;;;25.10;;
54259;SDS011;40172;53.022;7.012;2023-05-07T00:37:55;36.53;;;26.05;;
54259;SDS011;40172;53.022;7.012;2023-05-07T00:40:21;36.25;;;26.92;;
54259;SDS011;40172;53.022;7.012;2023-05-07T00:42:47;37.03;;;27.95;;
54259;SDS011;40172;53.022;7.012;2023-05-07T00:45:14;36.97;;;27.08;;
54259;SDS011;40172;53.022;7.012;2023-05-07T00:47:40;35.08;;;27.35;;
54259;SDS011;40172;53.022;7.012;2023-05-07T00:50:06;36.25;;;27.67;;
54259;SDS011;40172;53.022;7.012;2023-05-07T00:52:33;34.55;;;27.58;;
54259;SDS011;40172;53.022;7.012;2023-05-07T00:55:00;32.85;;;27.65;;
54259;SDS011;40172;53.022;7.012;2023-05-07T00:57:32;37.22;;;28.23;;
54259;SDS011;40172;53.022;7.012;2023-05-07T01:00:01;37.00;;;27.55;;
54259;SDS011;40172;53.022;7.012;2023-05-07T01:02:28;38.33;;;29.73;;
54259;SDS011;40172;53.022;7.012;2023-05-07T01:04:54;37.67;;;29.88;;
54259;SDS011;40172;53.022;7.012;2023-05-07T01:07:20;40.28;;;30.77;;
54259;SDS011;40172;53.022;7.012;2023-05-07T01:09:47;41.15;;;30.10;;
54259;SDS011;40172;53.022;7.012;2023-05-07T01:12:13;39.72;;;29.85;;
54259;SDS011;40172;53.022;7.012;2023-05-07T01:14:38;42.17;;;31.30;;
54259;SDS011;40172;53.022;7.012;2023-05-07T01:17:04;39.63;;;30.33;;
54259;SDS011;40172;53.022;7.012;2023-05-07T01:19:30;39.95;;;31.08;;
54259;SDS011;40172;53.022;7.012;2023-05-07T01:21:57;47.75;;;32.28;;
54259;SDS011;40172;53.022;7.012;2023-05-07T01:24:28;44.88;;;32.58;;
54259;SDS011;40172;53.022;7.012;2023-05-07T01:26:54;45.65;;;34.20;;
54259;SDS011;40172;53.022;7.012;2023-05-07T01:29:20;43.28;;;33.50;;
54259;SDS011;40172;53.022;7.012;2023-05-07T01:31:45;42.78;;;33.90;;
54259;SDS011;40172;53.022;7.012;2023-05-07T01:34:12;44.20;;;33.60;;
54259;SDS011;40172;53.022;7.012;2023-05-07T01:36:41;45.40;;;33.83;;
54259;SDS011;40172;53.022;7.012;2023-05-07T01:39:09;50.88;;;34.72;;
54259;SDS011;40172;53.022;7.012;2023-05-07T01:41:35;46.53;;;33.58;;
54259;SDS011;40172;53.022;7.012;2023-05-07T01:44:01;45.22;;;33.83;;
54259;SDS011;40172;53.022;7.012;2023-05-07T01:46:29;52.63;;;36.00;;
54259;SDS011;40172;53.022;7.012;2023-05-07T01:48:57;50.42;;;34.63;;
54259;SDS011;40172;53.022;7.012;2023-05-07T01:51:23;51.60;;;37.30;;
54259;SDS011;40172;53.022;7.012;2023-05-07T01:53:49;54.05;;;36.22;;
54259;SDS011;40172;53.022;7.012;2023-05-07T01:56:16;51.95;;;36.83;;
54259;SDS011;40172;53.022;7.012;2023-05-07T01:58:44;54.95;;;36.65;;
54259;SDS011;40172;53.022;7.012;2023-05-07T02:01:11;53.67;;;37.63;;
54259;SDS011;40172;53.022;7.012;2023-05-07T02:03:37;57.53;;;38.97;;
54259;SDS011;40172;53.022;7.012;2023-05-07T02:06:03;58.80;;;40.13;;
54259;SDS011;40172;53.022;7.012;2023-05-07T02:08:28;56.67;;;38.28;;
54259;SDS011;40172;53.022;7.012;2023-05-07T02:10:55;60.65;;;39.92;;
54259;SDS011;40172;53.022;7.012;2023-05-07T02:13:20;67.28;;;39.97;;
54259;SDS011;40172;53.022;7.012;2023-05-07T02:15:47;59.95;;;40.50;;
54259;SDS011;40172;53.022;7.012;2023-05-07T02:18:15;62.53;;;40.50;;
54259;SDS011;40172;53.022;7.012;2023-05-07T02:20:41;64.20;;;41.20;;
54259;SDS011;40172;53.022;7.012;2023-05-07T02:23:15;63.92;;;42.47;;
54259;SDS011;40172;53.022;7.012;2023-05-07T02:25:41;64.65;;;42.58;;
54259;SDS011;40172;53.022;7.012;2023-05-07T02:28:06;65.93;;;42.83;;
54259;SDS011;40172;53.022;7.012;2023-05-07T02:30:32;62.33;;;42.85;;
54259;SDS011;40172;53.022;7.012;2023-05-07T02:32:58;66.22;;;43.28;;
54259;SDS011;40172;53.022;7.012;2023-05-07T02:35:24;65.93;;;42.17;;
54259;SDS011;40172;53.022;7.012;2023-05-07T02:37:50;66.43;;;42.78;;
54259;SDS011;40172;53.022;7.012;2023-05-07T02:40:16;65.85;;;42.30;;
54259;SDS011;40172;53.022;7.012;2023-05-07T02:42:42;63.00;;;41.60;;
54259;SDS011;40172;53.022;7.012;2023-05-07T02:45:07;66.43;;;42.40;;
54259;SDS011;40172;53.022;7.012;2023-05-07T02:47:33;67.45;;;43.33;;
54259;SDS011;40172;53.022;7.012;2023-05-07T02:49:59;65.65;;;41.83;;
54259;SDS011;40172;53.022;7.012;2023-05-07T02:52:25;64.15;;;42.50;;
54259;SDS011;40172;53.022;7.012;2023-05-07T02:54:50;61.33;;;42.08;;
54259;SDS011;40172;53.022;7.012;2023-05-07T02:57:16;56.00;;;40.40;;
54259;SDS011;40172;53.022;7.012;2023-05-07T02:59:42;63.38;;;41.42;;
54259;SDS011;40172;53.022;7.012;2023-05-07T03:02:07;66.43;;;42.97;;
54259;SDS011;40172;53.022;7.012;2023-05-07T03:04:33;63.90;;;42.25;;
54259;SDS011;40172;53.022;7.012;2023-05-07T03:06:58;63.92;;;41.95;;
54259;SDS011;40172;53.022;7.012;2023-05-07T03:09:24;64.20;;;43.13;;
54259;SDS011;40172;53.022;7.012;2023-05-07T03:11:50;62.65;;;42.70;;
54259;SDS011;40172;53.022;7.012;2023-05-07T03:14:16;65.78;;;43.50;;
54259;SDS011;40172;53.022;7.012;2023-05-07T03:16:41;61.58;;;41.13;;
54259;SDS011;40172;53.022;7.012;2023-05-07T03:19:07;62.33;;;42.00;;
54259;SDS011;40172;53.022;7.012;2023-05-07T03:21:32;62.53;;;42.60;;
54259;SDS011;40172;53.022;7.012;2023-05-07T03:23:59;58.90;;;41.58;;
54259;SDS011;40172;53.022;7.012;2023-05-07T03:26:25;60.90;;;42.83;;
54259;SDS011;40172;53.022;7.012;2023-05-07T03:28:50;57.53;;;39.85;;
54259;SDS011;40172;53.022;7.012;2023-05-07T03:31:16;53.13;;;40.45;;
54259;SDS011;40172;53.022;7.012;2023-05-07T03:33:49;54.85;;;39.58;;
54259;SDS011;40172;53.022;7.012;2023-05-07T03:36:20;60.65;;;40.40;;
54259;SDS011;40172;53.022;7.012;2023-05-07T03:38:46;55.65;;;41.10;;
54259;SDS011;40172;53.022;7.012;2023-05-07T03:41:12;61.40;;;40.67;;
54259;SDS011;40172;53.022;7.012;2023-05-07T03:43:38;54.83;;;38.85;;
54259;SDS011;40172;53.022;7.012;2023-05-07T03:46:04;54.70;;;39.53;;
54259;SDS011;40172;53.022;7.012;2023-05-07T03:48:29;55.33;;;39.47;;
54259;SDS011;40172;53.022;7.012;2023-05-07T03:50:55;59.20;;;39.20;;
54259;SDS011;40172;53.022;7.012;2023-05-07T03:53:22;54.53;;;37.97;;
54259;SDS011;40172;53.022;7.012;2023-05-07T03:55:48;56.00;;;37.90;;
54259;SDS011;40172;53.022;7.012;2023-05-07T03:58:13;55.63;;;36.50;;
54259;SDS011;40172;53.022;7.012;2023-05-07T04:00:39;52.72;;;36.53;;
54259;SDS011;40172;53.022;7.012;2023-05-07T04:03:05;52.03;;;34.65;;
54259;SDS011;40172;53.022;7.012;2023-05-07T04:05:31;48.50;;;35.47;;
54259;SDS011;40172;53.022;7.012;2023-05-07T04:07:57;45.92;;;34.28;;
54259;SDS011;40172;53.022;7.012;2023-05-07T04:10:23;50.45;;;33.92;;
54259;SDS011;40172;53.022;7.012;2023-05-07T04:12:49;46.08;;;33.28;;
54259;SDS011;40172;53.022;7.012;2023-05-07T04:15:14;45.00;;;33.53;;
54259;SDS011;40172;53.022;7.012;2023-05-07T04:17:40;48.50;;;33.38;;
54259;SDS011;40172;53.022;7.012;2023-05-07T04:20:08;46.10;;;33.13;;
54259;SDS011;40172;53.022;7.012;2023-05-07T04:22:35;42.75;;;32.42;;
54259;SDS011;40172;53.022;7.012;2023-05-07T04:25:01;40.20;;;31.77;;
54259;SDS011;40172;53.022;7.012;2023-05-07T04:27:27;43.20;;;32.10;;
54259;SDS011;40172;53.022;7.012;2023-05-07T04:29:53;44.70;;;32.97;;
54259;SDS011;40172;53.022;7.012;2023-05-07T04:32:24;40.70;;;32.15;;
54259;SDS011;40172;53.022;7.012;2023-05-07T04:34:50;40.15;;;30.60;;
54259;SDS011;40172;53.022;7.012;2023-05-07T04:37:15;38.83;;;30.48;;
54259;SDS011;40172;53.022;7.012;2023-05-07T04:39:42;40.08;;;31.40;;
54259;SDS011;40172;53.022;7.012;2023-05-07T04:42:07;37.72;;;30.60;;
54259;SDS011;40172;53.022;7.012;2023-05-07T04:44:34;40.88;;;31.30;;
54259;SDS011;40172;53.022;7.012;2023-05-07T04:47:00;39.92;;;31.20;;
54259;SDS011;40172;53.022;7.012;2023-05-07T04:49:25;39.55;;;30.73;;
54259;SDS011;40172;53.022;7.012;2023-05-07T04:51:51;42.38;;;31.40;;
54259;SDS011;40172;53.022;7.012;2023-05-07T04:54:17;42.85;;;31.10;;
54259;SDS011;40172;53.022;7.012;2023-05-07T04:56:42;38.45;;;29.77;;
54259;SDS011;40172;53.022;7.012;2023-05-07T04:59:08;39.83;;;29.98;;
54259;SDS011;40172;53.022;7.012;2023-05-07T05:01:33;40.00;;;29.98;;
54259;SDS011;40172;53.022;7.012;2023-05-07T05:03:59;37.70;;;30.08;;
54259;SDS011;40172;53.022;7.012;2023-05-07T05:06:25;37.38;;;29.02;;
54259;SDS011;40172;53.022;7.012;2023-05-07T05:08:51;37.47;;;30.65;;
54259;SDS011;40172;53.022;7.012;2023-05-07T05:11:16;37.15;;;29.77;;
54259;SDS011;40172;53.022;7.012;2023-05-07T05:13:42;36.40;;;28.98;;
54259;SDS011;40172;53.022;7.012;2023-05-07T05:16:07;36.13;;;28.92;;
54259;SDS011;40172;53.022;7.012;2023-05-07T05:18:33;34.10;;;28.05;;
54259;SDS011;40172;53.022;7.012;2023-05-07T05:20:59;37.95;;;28.40;;
54259;SDS011;40172;53.022;7.012;2023-05-07T05:23:24;38.13;;;29.30;;
54259;SDS011;40172;53.022;7.012;2023-05-07T05:25:54;33.15;;;28.35;;
54259;SDS011;40172;53.022;7.012;2023-05-07T05:28:21;37.83;;;30.00;;
54259;SDS011;40172;53.022;7.012;2023-05-07T05:30:47;37.83;;;28.45;;
54259;SDS011;40172;53.022;7.012;2023-05-07T05:33:12;33.95;;;27.40;;
54259;SDS011;40172;53.022;7.012;2023-05-07T05:35:38;33.28;;;27.30;;
54259;SDS011;40172;53.022;7.012;2023-05-07T05:38:03;35.13;;;28.60;;
54259;SDS011;40172;53.022;7.012;2023-05-07T05:40:29;34.67;;;28.85;;
54259;SDS011;40172;53.022;7.012;2023-05-07T05:42:55;32.58;;;27.15;;
54259;SDS011;40172;53.022;7.012;2023-05-07T05:45:21;37.65;;;28.10;;
54259;SDS011;40172;53.022;7.012;2023-05-07T05:47:46;32.13;;;26.10;;
54259;SDS011;40172;53.022;7.012;2023-05-07T05:50:12;29.45;;;25.63;;
54259;SDS011;40172;53.022;7.012;2023-05-07T05:52:37;33.25;;;27.35;;
54259;SDS011;40172;53.022;7.012;2023-05-07T05:55:03;33.47;;;27.10;;
54259;SDS011;40172;53.022;7.012;2023-05-07T05:57:29;30.83;;;26.60;;
54259;SDS011;40172;53.022;7.012;2023-05-07T05:59:55;33.53;;;27.23;;
54259;SDS011;40172;53.022;7.012;2023-05-07T06:02:21;36.08;;;28.13;;
54259;SDS011;40172;53.022;7.012;2023-05-07T06:04:46;33.47;;;26.77;;
54259;SDS011;40172;53.022;7.012;2023-05-07T06:07:12;33.80;;;27.00;;
54259;SDS011;40172;53.022;7.012;2023-05-07T06:09:37;30.70;;;26.10;;
54259;SDS011;40172;53.022;7.012;2023-05-07T06:12:03;32.22;;;27.08;;
54259;SDS011;40172;53.022;7.012;2023-05-07T06:14:28;30.40;;;25.75;;
54259;SDS011;40172;53.022;7.012;2023-05-07T06:16:54;34.30;;;25.83;;
54259;SDS011;40172;53.022;7.012;2023-05-07T06:19:20;33.40;;;26.55;;
54259;SDS011;40172;53.022;7.012;2023-05-07T06:21:48;33.35;;;26.15;;
54259;SDS011;40172;53.022;7.012;2023-05-07T06:24:14;31.80;;;26.52;;
54259;SDS011;40172;53.022;7.012;2023-05-07T06:26:40;29.92;;;25.42;;
54259;SDS011;40172;53.022;7.012;2023-05-07T06:29:06;32.20;;;26.25;;
54259;SDS011;40172;53.022;7.012;2023-05-07T06:31:31;32.72;;;26.58;;
54259;SDS011;40172;53.022;7.012;2023-05-07T06:33:57;33.55;;;26.05;;
54259;SDS011;40172;53.022;7.012;2023-05-07T06:36:23;29.73;;;25.60;;
54259;SDS011;40172;53.022;7.012;2023-05-07T06:38:49;29.40;;;24.08;;
54259;SDS011;40172;53.022;7.012;2023-05-07T06:41:15;31.80;;;25.48;;
54259;SDS011;40172;53.022;7.012;2023-05-07T06:43:40;29.17;;;23.80;;
54259;SDS011;40172;53.022;7.012;2023-05-07T06:46:06;31.48;;;26.23;;
54259;SDS011;40172;53.022;7.012;2023-05-07T06:48:32;31.38;;;25.30;;
54259;SDS011;40172;53.022;7.012;2023-05-07T06:50:58;29.65;;;24.65;;
54259;SDS011;40172;53.022;7.012;2023-05-07T06:53:23;31.67;;;24.67;;
54259;SDS011;40172;53.022;7.012;2023-05-07T06:55:49;33.22;;;26.30;;
54259;SDS011;40172;53.022;7.012;2023-05-07T06:58:15;31.08;;;25.70;;
54259;SDS011;40172;53.022;7.012;2023-05-07T07:00:40;30.27;;;25.33;;
54259;SDS011;40172;53.022;7.012;2023-05-07T07:03:06;31.60;;;25.17;;
54259;SDS011;40172;53.022;7.012;2023-05-07T07:05:32;30.48;;;24.17;;
54259;SDS011;40172;53.022;7.012;2023-05-07T07:07:57;30.27;;;25.42;;
54259;SDS011;40172;53.022;7.012;2023-05-07T07:10:23;30.08;;;25.67;;
54259;SDS011;40172;53.022;7.012;2023-05-07T07:12:49;31.27;;;26.20;;
54259;SDS011;40172;53.022;7.012;2023-05-07T07:15:15;33.60;;;25.08;;
54259;SDS011;40172;53.022;7.012;2023-05-07T07:17:41;28.13;;;24.48;;
54259;SDS011;40172;53.022;7.012;2023-05-07T07:20:07;28.45;;;24.08;;
54259;SDS011;40172;53.022;7.012;2023-05-07T07:22:33;30.58;;;24.77;;
54259;SDS011;40172;53.022;7.012;2023-05-07T07:24:59;30.45;;;25.25;;
54259;SDS011;40172;53.022;7.012;2023-05-07T07:27:24;27.10;;;23.67;;
54259;SDS011;40172;53.022;7.012;2023-05-07T07:29:50;32.22;;;24.45;;
54259;SDS011;40172;53.022;7.012;2023-05-07T07:32:16;26.77;;;23.83;;
54259;SDS011;40172;53.022;7.012;2023-05-07T07:34:41;30.10;;;24.60;;
54259;SDS011;40172;53.022;7.012;2023-05-07T07:37:07;26.70;;;23.77;;
54259;SDS011;40172;53.022;7.012;2023-05-07T07:39:32;30.98;;;24.67;;
54259;SDS011;40172;53.022;7.012;2023-05-07T07:41:58;30.75;;;24.13;;
54259;SDS011;40172;53.022;7.012;2023-05-07T07:44:25;27.73;;;23.38;;
54259;SDS011;40172;53.022;7.012;2023-05-07T07:46:50;28.60;;;23.38;;
54259;SDS011;40172;53.022;7.012;2023-05-07T07:49:16;27.83;;;23.58;;
54259;SDS011;40172;53.022;7.012;2023-05-07T07:51:42;26.08;;;23.20;;
54259;SDS011;40172;53.022;7.012;2023-05-07T07:54:08;28.05;;;23.63;;
54259;SDS011;40172;53.022;7.012;2023-05-07T07:56:34;30.17;;;24.92;;
54259;SDS011;40172;53.022;7.012;2023-05-07T07:59:00;29.10;;;23.70;;
54259;SDS011;40172;53.022;7.012;2023-05-07T08:01:26;30.05;;;23.15;;
54259;SDS011;40172;53.022;7.012;2023-05-07T08:03:52;27.65;;;23.17;;
54259;SDS011;40172;53.022;7.012;2023-05-07T08:06:18;28.75;;;22.48;;
54259;SDS011;40172;53.022;7.012;2023-05-07T08:08:43;29.45;;;22.92;;
54259;SDS011;40172;53.022;7.012;2023-05-07T08:11:09;26.80;;;22.17;;
54259;SDS011;40172;53.022;7.012;2023-05-07T08:13:36;26.58;;;22.30;;
54259;SDS011;40172;53.022;7.012;2023-05-07T08:16:03;23.42;;;20.73;;
54259;SDS011;40172;53.022;7.012;2023-05-07T08:18:29;26.38;;;21.50;;
54259;SDS011;40172;53.022;7.012;2023-05-07T08:20:57;24.27;;;20.77;;
54259;SDS011;40172;53.022;7.012;2023-05-07T08:23:23;26.10;;;20.90;;
54259;SDS011;40172;53.022;7.012;2023-05-07T08:25:49;24.15;;;21.52;;
54259;SDS011;40172;53.022;7.012;2023-05-07T08:28:16;23.95;;;20.95;;
54259;SDS011;40172;53.022;7.012;2023-05-07T08:30:41;26.60;;;20.88;;
54259;SDS011;40172;53.022;7.012;2023-05-07T08:33:08;24.20;;;21.58;;
54259;SDS011;40172;53.022;7.012;2023-05-07T08:35:34;26.50;;;20.92;;
54259;SDS011;40172;53.022;7.012;2023-05-07T08:38:00;23.40;;;20.92;;
54259;SDS011;40172;53.022;7.012;2023-05-07T08:40:26;22.92;;;20.10;;
54259;SDS011;40172;53.022;7.012;2023-05-07T08:42:54;26.17;;;20.70;;
54259;SDS011;40172;53.022;7.012;2023-05-07T08:45:22;23.13;;;20.35;;
54259;SDS011;40172;53.022;7.012;2023-05-07T08:47:50;26.75;;;21.02;;
54259;SDS011;40172;53.022;7.012;2023-05-07T08:50:20;23.48;;;20.50;;
54259;SDS011;40172;53.022;7.012;2023-05-07T08:52:46;22.63;;;19.52;;
54259;SDS011;40172;53.022;7.012;2023-05-07T08:55:12;21.50;;;19.10;;
54259;SDS011;40172;53.022;7.012;2023-05-07T08:57:39;28.17;;;19.67;;
54259;SDS011;40172;53.022;7.012;2023-05-07T09:00:07;25.52;;;19.83;;
54259;SDS011;40172;53.022;7.012;2023-05-07T09:02:35;23.70;;;20.00;;
54259;SDS011;40172;53.022;7.012;2023-05-07T09:05:01;22.50;;;19.17;;
54259;SDS011;40172;53.022;7.012;2023-05-07T09:07:27;21.95;;;18.58;;
54259;SDS011;40172;53.022;7.012;2023-05-07T09:09:53;21.27;;;18.98;;
54259;SDS011;40172;53.022;7.012;2023-05-07T09:12:22;22.48;;;17.67;;
54259;SDS011;40172;53.022;7.012;2023-05-07T09:14:48;21.15;;;18.02;;
54259;SDS011;40172;53.022;7.012;2023-05-07T09:17:17;20.10;;;17.90;;
54259;SDS011;40172;53.022;7.012;2023-05-07T09:19:44;20.05;;;17.83;;
54259;SDS011;40172;53.022;7.012;2023-05-07T09:22:12;19.10;;;17.05;;
54259;SDS011;40172;53.022;7.012;2023-05-07T09:24:38;19.83;;;17.15;;
54259;SDS011;40172;53.022;7.012;2023-05-07T09:27:05;18.85;;;16.85;;
54259;SDS011;40172;53.022;7.012;2023-05-07T09:29:31;18.25;;;16.35;;
54259;SDS011;40172;53.022;7.012;2023-05-07T09:32:07;18.10;;;16.20;;
54259;SDS011;40172;53.022;7.012;2023-05-07T09:34:34;19.38;;;17.23;;
54259;SDS011;40172;53.022;7.012;2023-05-07T09:37:00;17.63;;;15.77;;
54259;SDS011;40172;53.022;7.012;2023-05-07T09:39:40;18.25;;;16.27;;
54259;SDS011;40172;53.022;7.012;2023-05-07T09:42:09;18.85;;;16.38;;
54259;SDS011;40172;53.022;7.012;2023-05-07T09:44:36;18.23;;;16.13;;
54259;SDS011;40172;53.022;7.012;2023-05-07T09:47:04;17.10;;;15.40;;
54259;SDS011;40172;53.022;7.012;2023-05-07T09:49:31;18.13;;;16.20;;
54259;SDS011;40172;53.022;7.012;2023-05-07T09:52:00;17.77;;;15.65;;
54259;SDS011;40172;53.022;7.012;2023-05-07T09:54:26;18.15;;;15.25;;
54259;SDS011;40172;53.022;7.012;2023-05-07T09:56:55;17.75;;;15.85;;
54259;SDS011;40172;53.022;7.012;2023-05-07T09:59:22;16.80;;;15.07;;
54259;SDS011;40172;53.022;7.012;2023-05-07T10:01:47;17.63;;;15.20;;
54259;SDS011;40172;53.022;7.012;2023-05-07T10:04:15;16.13;;;14.52;;
54259;SDS011;40172;53.022;7.012;2023-05-07T10:06:42;17.77;;;15.32;;
54259;SDS011;40172;53.022;7.012;2023-05-07T10:09:08;17.58;;;15.10;;
54259;SDS011;40172;53.022;7.012;2023-05-07T10:11:36;16.85;;;15.05;;
54259;SDS011;40172;53.022;7.012;2023-05-07T10:14:02;15.70;;;14.13;;
54259;SDS011;40172;53.022;7.012;2023-05-07T10:16:31;18.38;;;14.75;;
54259;SDS011;40172;53.022;7.012;2023-05-07T10:19:02;15.32;;;13.82;;
54259;SDS011;40172;53.022;7.012;2023-05-07T10:21:28;16.15;;;14.45;;
54259;SDS011;40172;53.022;7.012;2023-05-07T10:23:59;17.45;;;14.63;;
54259;SDS011;40172;53.022;7.012;2023-05-07T10:26:31;15.73;;;14.13;;
54259;SDS011;40172;53.022;7.012;2023-05-07T10:29:03;15.85;;;14.20;;
54259;SDS011;40172;53.022;7.012;2023-05-07T10:31:48;15.40;;;13.80;;
54259;SDS011;40172;53.022;7.012;2023-05-07T10:34:21;15.35;;;13.48;;
54259;SDS011;40172;53.022;7.012;2023-05-07T10:36:51;15.13;;;13.60;;
54259;SDS011;40172;53.022;7.012;2023-05-07T10:39:19;14.65;;;13.25;;
54259;SDS011;40172;53.022;7.012;2023-05-07T10:41:46;15.40;;;13.90;;
54259;SDS011;40172;53.022;7.012;2023-05-07T10:44:12;16.10;;;14.05;;
54259;SDS011;40172;53.022;7.012;2023-05-07T10:50:19;15.20;;;13.70;;
54259;SDS011;40172;53.022;7.012;2023-05-07T10:52:30;14.80;;;13.20;;
54259;SDS011;40172;53.022;7.012;2023-05-07T10:57:42;14.20;;;12.80;;
54259;SDS011;40172;53.022;7.012;2023-05-07T11:03:07;14.07;;;12.57;;
54259;SDS011;40172;53.022;7.012;2023-05-07T11:05:33;15.50;;;13.90;;
54259;SDS011;40172;53.022;7.012;2023-05-07T11:08:02;15.50;;;13.48;;
54259;SDS011;40172;53.022;7.012;2023-05-07T11:10:47;14.60;;;13.20;;
54259;SDS011;40172;53.022;7.012;2023-05-07T11:15:40;14.43;;;12.93;;
54259;SDS011;40172;53.022;7.012;2023-05-07T11:18:08;14.35;;;12.63;;
54259;SDS011;40172;53.022;7.012;2023-05-07T11:20:47;14.27;;;12.88;;
54259;SDS011;40172;53.022;7.012;2023-05-07T11:28:36;15.25;;;13.15;;
54259;SDS011;40172;53.022;7.012;2023-05-07T11:31:03;14.25;;;12.80;;
54259;SDS011;40172;53.022;7.012;2023-05-07T11:33:32;14.38;;;12.88;;
54259;SDS011;40172;53.022;7.012;2023-05-07T11:36:02;13.80;;;12.40;;
54259;SDS011;40172;53.022;7.012;2023-05-07T11:38:35;14.82;;;13.25;;
54259;SDS011;40172;53.022;7.012;2023-05-07T11:41:02;14.98;;;13.48;;
54259;SDS011;40172;53.022;7.012;2023-05-07T11:43:30;14.45;;;13.07;;
54259;SDS011;40172;53.022;7.012;2023-05-07T11:46:10;14.30;;;12.90;;
54259;SDS011;40172;53.022;7.012;2023-05-07T11:48:37;14.23;;;12.73;;
54259;SDS011;40172;53.022;7.012;2023-05-07T11:51:04;13.32;;;11.93;;
54259;SDS011;40172;53.022;7.012;2023-05-07T11:53:37;13.73;;;11.88;;
54259;SDS011;40172;53.022;7.012;2023-05-07T11:56:06;13.68;;;12.25;;
54259;SDS011;40172;53.022;7.012;2023-05-07T11:58:32;14.35;;;12.95;;
54259;SDS011;40172;53.022;7.012;2023-05-07T12:00:58;13.85;;;12.45;;
54259;SDS011;40172;53.022;7.012;2023-05-07T12:03:23;13.55;;;12.18;;
54259;SDS011;40172;53.022;7.012;2023-05-07T12:05:49;14.05;;;12.65;;
54259;SDS011;40172;53.022;7.012;2023-05-07T12:08:15;13.75;;;12.35;;
54259;SDS011;40172;53.022;7.012;2023-05-07T12:10:41;13.07;;;11.85;;
54259;SDS011;40172;53.022;7.012;2023-05-07T12:13:14;13.35;;;12.05;;
54259;SDS011;40172;53.022;7.012;2023-05-07T12:15:53;14.50;;;12.00;;
54259;SDS011;40172;53.022;7.012;2023-05-07T12:18:20;12.52;;;11.25;;
54259;SDS011;40172;53.022;7.012;2023-05-07T12:20:47;13.07;;;11.77;;
54259;SDS011;40172;53.022;7.012;2023-05-07T12:23:14;13.27;;;11.88;;
54259;SDS011;40172;53.022;7.012;2023-05-07T12:25:40;12.68;;;11.38;;
54259;SDS011;40172;53.022;7.012;2023-05-07T12:28:14;12.77;;;11.57;;
54259;SDS011;40172;53.022;7.012;2023-05-07T12:30:48;11.57;;;10.48;;
54259;SDS011;40172;53.022;7.012;2023-05-07T12:33:19;12.73;;;11.43;;
54259;SDS011;40172;53.022;7.012;2023-05-07T12:38:15;12.68;;;11.48;;
54259;SDS011;40172;53.022;7.012;2023-05-07T12:40:46;12.15;;;10.88;;
54259;SDS011;40172;53.022;7.012;2023-05-07T12:43:16;15.80;;;11.00;;
54259;SDS011;40172;53.022;7.012;2023-05-07T12:45:49;13.68;;;10.20;;
54259;SDS011;40172;53.022;7.012;2023-05-07T12:48:16;11.93;;;10.73;;
54259;SDS011;40172;53.022;7.012;2023-05-07T12:50:42;12.10;;;10.90;;
54259;SDS011;40172;53.022;7.012;2023-05-07T12:53:09;12.25;;;11.05;;
54259;SDS011;40172;53.022;7.012;2023-05-07T12:55:44;12.75;;;11.50;;
54259;SDS011;40172;53.022;7.012;2023-05-07T12:58:20;12.30;;;11.05;;
54259;SDS011;40172;53.022;7.012;2023-05-07T13:00:50;12.75;;;10.98;;
54259;SDS011;40172;53.022;7.012;2023-05-07T13:05:52;11.38;;;10.27;;
54259;SDS011;40172;53.022;7.012;2023-05-07T13:08:38;11.57;;;10.38;;
54259;SDS011;40172;53.022;7.012;2023-05-07T13:11:07;12.13;;;10.25;;
54259;SDS011;40172;53.022;7.012;2023-05-07T13:13:35;13.00;;;10.48;;
54259;SDS011;40172;53.022;7.012;2023-05-07T13:16:03;11.93;;;10.73;;
54259;SDS011;40172;53.022;7.012;2023-05-07T13:18:30;12.57;;;10.73;;
54259;SDS011;40172;53.022;7.012;2023-05-07T13:20:57;11.90;;;10.70;;
54259;SDS011;40172;53.022;7.012;2023-05-07T13:23:23;12.00;;;10.80;;
54259;SDS011;40172;53.022;7.012;2023-05-07T13:25:50;11.90;;;10.73;;
54259;SDS011;40172;53.022;7.012;2023-05-07T13:28:15;13.20;;;11.27;;
54259;SDS011;40172;53.022;7.012;2023-05-07T13:30:41;11.90;;;10.70;;
54259;SDS011;40172;53.022;7.012;2023-05-07T13:33:07;11.73;;;10.52;;
54259;SDS011;40172;53.022;7.012;2023-05-07T13:35:33;11.60;;;10.40;;
54259;SDS011;40172;53.022;7.012;2023-05-07T13:38:00;11.38;;;10.38;;
54259;SDS011;40172;53.022;7.012;2023-05-07T13:40:25;12.65;;;10.52;;
54259;SDS011;40172;53.022;7.012;2023-05-07T13:42:51;12.75;;;10.95;;
54259;SDS011;40172;53.022;7.012;2023-05-07T13:45:17;11.43;;;10.43;;
54259;SDS011;40172;53.022;7.012;2023-05-07T13:47:44;11.80;;;10.70;;
54259;SDS011;40172;53.022;7.012;2023-05-07T13:50:10;12.07;;;10.82;;
54259;SDS011;40172;53.022;7.012;2023-05-07T13:52:37;12.50;;;11.20;;
54259;SDS011;40172;53.022;7.012;2023-05-07T13:55:03;12.68;;;11.57;;
54259;SDS011;40172;53.022;7.012;2023-05-07T13:57:29;12.52;;;11.30;;
54259;SDS011;40172;53.022;7.012;2023-05-07T13:59:54;13.85;;;11.55;;
54259;SDS011;40172;53.022;7.012;2023-05-07T14:02:20;13.13;;;11.82;;
54259;SDS011;40172;53.022;7.012;2023-05-07T14:04:46;12.27;;;11.18;;
54259;SDS011;40172;53.022;7.012;2023-05-07T14:07:11;15.98;;;11.75;;
54259;SDS011;40172;53.022;7.012;2023-05-07T14:09:37;13.45;;;12.10;;
54259;SDS011;40172;53.022;7.012;2023-05-07T14:12:03;13.25;;;12.05;;
54259;SDS011;40172;53.022;7.012;2023-05-07T14:14:28;13.02;;;11.82;;
54259;SDS011;40172;53.022;7.012;2023-05-07T14:16:54;13.38;;;12.02;;
54259;SDS011;40172;53.022;7.012;2023-05-07T14:19:20;15.32;;;12.88;;
54259;SDS011;40172;53.022;7.012;2023-05-07T14:21:47;14.07;;;12.65;;
54259;SDS011;40172;53.022;7.012;2023-05-07T14:24:13;16.27;;;12.55;;
54259;SDS011;40172;53.022;7.012;2023-05-07T14:26:38;13.18;;;11.88;;
54259;SDS011;40172;53.022;7.012;2023-05-07T14:29:04;13.90;;;12.07;;
54259;SDS011;40172;53.022;7.012;2023-05-07T14:31:30;13.05;;;11.80;;
54259;SDS011;40172;53.022;7.012;2023-05-07T14:33:55;14.55;;;12.30;;
54259;SDS011;40172;53.022;7.012;2023-05-07T14:36:23;14.40;;;12.95;;
54259;SDS011;40172;53.022;7.012;2023-05-07T14:38:51;13.70;;;12.32;;
54259;SDS011;40172;53.022;7.012;2023-05-07T14:41:17;13.77;;;12.07;;